createdAt,value
2019-05-22T00:00:37.719Z,25.13
2019-05-22T00:03:06.169Z,24.80
2019-05-22T00:05:32.938Z,24.00
2019-05-22T00:08:02.087Z,23.67
2019-05-22T00:10:29.856Z,23.50
2019-05-22T00:12:58.137Z,26.13
2019-05-22T00:15:25.015Z,26.53
2019-05-22T00:17:53.563Z,26.70
2019-05-22T00:20:21.789Z,26.73
2019-05-22T00:22:50.175Z,26.40
2019-05-22T00:25:19.476Z,26.83
2019-05-22T00:27:48.527Z,28.70
2019-05-22T00:30:15.959Z,28.70
2019-05-22T00:32:42.940Z,28.93
2019-05-22T00:35:09.918Z,28.83
2019-05-22T00:37:36.692Z,27.80
2019-05-22T00:40:06.696Z,29.77
2019-05-22T00:42:33.280Z,26.37
2019-05-22T00:44:59.726Z,29.87
2019-05-22T00:47:28.306Z,28.77
2019-05-22T00:49:55.480Z,27.80
2019-05-22T00:52:22.065Z,28.87
2019-05-22T00:54:50.811Z,27.93
2019-05-22T00:57:19.202Z,27.13
2019-05-22T00:59:47.438Z,27.67
2019-05-22T01:02:15.823Z,27.07
2019-05-22T01:04:43.187Z,26.20
2019-05-22T01:07:12.067Z,27.63
2019-05-22T01:09:40.925Z,26.70
2019-05-22T01:12:11.273Z,27.73
2019-05-22T01:14:42.983Z,27.47
2019-05-22T01:17:07.658Z,26.53
2019-05-22T01:19:34.317Z,27.10
2019-05-22T01:22:00.946Z,27.23
2019-05-22T01:24:27.811Z,26.17
2019-05-22T01:26:56.526Z,28.13
2019-05-22T01:29:23.381Z,26.87
2019-05-22T01:31:54.958Z,27.43
2019-05-22T01:34:23.507Z,27.40
2019-05-22T01:36:50.987Z,28.40
2019-05-22T01:39:21.207Z,26.73
2019-05-22T01:41:49.657Z,27.47
2019-05-22T01:44:18.218Z,27.80
2019-05-22T01:46:45.298Z,27.83
2019-05-22T01:49:11.657Z,27.57
2019-05-22T01:51:38.099Z,25.23
2019-05-22T01:54:06.587Z,26.33
2019-05-22T01:56:34.873Z,25.20
2019-05-22T01:59:02.052Z,27.27
2019-05-22T02:01:29.839Z,25.47
2019-05-22T02:03:58.311Z,27.07
2019-05-22T02:06:26.659Z,23.27
2019-05-22T02:08:56.331Z,25.00
2019-05-22T02:11:25.883Z,25.47
2019-05-22T02:13:54.378Z,24.20
2019-05-22T02:16:20.931Z,24.03
2019-05-22T02:18:48.895Z,24.97
2019-05-22T02:21:16.956Z,24.90
2019-05-22T02:23:45.256Z,25.13
2019-05-22T02:26:12.715Z,25.23
2019-05-22T02:28:39.793Z,25.33
2019-05-22T02:31:06.536Z,24.47
2019-05-22T02:33:35.837Z,25.87
2019-05-22T02:36:03.629Z,25.83
2019-05-22T02:38:31.005Z,26.10
2019-05-22T02:40:57.999Z,28.30
2019-05-22T02:43:25.010Z,28.70
2019-05-22T02:45:51.574Z,27.03
2019-05-22T02:48:18.002Z,29.47
2019-05-22T02:50:46.048Z,27.50
2019-05-22T02:53:14.195Z,28.97
2019-05-22T02:55:41.080Z,29.20
2019-05-22T02:58:09.521Z,29.53
2019-05-22T03:00:39.001Z,30.47
2019-05-22T03:03:06.587Z,29.53
2019-05-22T03:05:32.971Z,31.47
2019-05-22T03:07:59.540Z,29.27
2019-05-22T03:10:27.948Z,31.40
2019-05-22T03:12:54.498Z,29.50
2019-05-22T03:15:23.205Z,29.30
2019-05-22T03:17:52.667Z,28.93
2019-05-22T03:20:20.943Z,31.17
2019-05-22T03:22:49.794Z,33.47
2019-05-22T03:25:17.363Z,30.63
2019-05-22T03:27:46.114Z,29.50
2019-05-22T03:30:14.478Z,30.60
2019-05-22T03:32:43.902Z,30.50
2019-05-22T03:35:09.821Z,30.67
2019-05-22T03:37:38.976Z,29.73
2019-05-22T03:40:06.755Z,28.20
2019-05-22T03:42:35.244Z,28.57
2019-05-22T03:45:03.321Z,28.13
2019-05-22T03:47:30.199Z,28.37
2019-05-22T03:49:57.248Z,28.87
2019-05-22T03:52:25.016Z,29.17
2019-05-22T03:54:51.674Z,26.40
2019-05-22T03:57:18.660Z,28.90
2019-05-22T03:59:45.001Z,27.33
2019-05-22T04:02:11.785Z,29.03
2019-05-22T04:04:39.240Z,26.57
2019-05-22T04:07:07.906Z,25.20
2019-05-22T04:09:37.352Z,26.10
2019-05-22T04:12:07.447Z,26.43
2019-05-22T04:14:34.897Z,24.00
2019-05-22T04:17:02.067Z,26.37
2019-05-22T04:19:46.838Z,24.40
2019-05-22T04:21:57.611Z,27.20
2019-05-22T04:24:24.172Z,25.40
2019-05-22T04:26:50.937Z,25.90
2019-05-22T04:29:17.907Z,26.83
2019-05-22T04:31:45.878Z,26.43
2019-05-22T04:34:12.808Z,27.43
2019-05-22T04:36:39.503Z,25.20
2019-05-22T04:39:11.212Z,24.23
2019-05-22T04:41:37.715Z,28.23
2019-05-22T04:44:04.869Z,26.57
2019-05-22T04:46:31.847Z,25.80
2019-05-22T04:48:58.502Z,27.23
2019-05-22T04:51:25.840Z,27.40
2019-05-22T04:53:53.341Z,26.07
2019-05-22T04:56:21.610Z,26.70
2019-05-22T04:58:48.088Z,25.20
2019-05-22T05:01:14.553Z,26.20
2019-05-22T05:03:41.115Z,27.30
2019-05-22T05:06:08.681Z,25.33
2019-05-22T05:08:36.544Z,26.07
2019-05-22T05:11:04.123Z,24.60
2019-05-22T05:13:30.693Z,23.83
2019-05-22T05:15:57.385Z,23.93
2019-05-22T05:18:24.063Z,24.40
2019-05-22T05:20:50.613Z,22.90
2019-05-22T05:23:17.080Z,22.97
2019-05-22T05:25:44.026Z,24.03
2019-05-22T05:28:11.304Z,25.10
2019-05-22T05:30:37.972Z,23.97
2019-05-22T05:33:04.787Z,23.80
2019-05-22T05:35:31.932Z,23.63
2019-05-22T05:37:59.434Z,24.20
2019-05-22T05:40:25.895Z,23.80
2019-05-22T05:42:52.804Z,23.37
2019-05-22T05:45:19.387Z,23.30
2019-05-22T05:47:45.743Z,23.37
2019-05-22T05:50:14.287Z,22.13
2019-05-22T05:52:41.259Z,23.23
2019-05-22T05:55:08.335Z,23.60
2019-05-22T05:57:37.943Z,23.47
2019-05-22T06:00:07.830Z,22.10
2019-05-22T06:02:34.844Z,21.73
2019-05-22T06:05:01.924Z,22.13
2019-05-22T06:07:28.471Z,21.93
2019-05-22T06:09:57.043Z,22.40
2019-05-22T06:12:23.395Z,21.10
2019-05-22T06:14:51.070Z,21.67
2019-05-22T06:17:19.416Z,20.93
2019-05-22T06:19:48.103Z,21.07
2019-05-22T06:22:15.162Z,19.60
2019-05-22T06:24:43.539Z,19.50
2019-05-22T06:27:12.104Z,20.20
2019-05-22T06:29:41.518Z,19.93
2019-05-22T06:32:11.473Z,19.80
2019-05-22T06:34:38.657Z,18.67
2019-05-22T06:37:07.708Z,19.60
2019-05-22T06:39:34.268Z,19.27
2019-05-22T06:42:00.636Z,19.53
2019-05-22T06:44:29.631Z,20.32
2019-05-22T06:46:56.994Z,18.67
2019-05-22T06:49:28.154Z,19.75
2019-05-22T06:51:54.652Z,18.37
2019-05-22T06:54:21.101Z,18.97
2019-05-22T06:56:47.472Z,18.50
2019-05-22T06:59:13.916Z,19.00
2019-05-22T07:01:40.911Z,18.90
2019-05-22T07:04:07.472Z,18.87
2019-05-22T07:06:35.158Z,19.43
2019-05-22T07:09:03.215Z,18.50
2019-05-22T07:11:29.805Z,20.15
2019-05-22T07:13:56.492Z,19.15
2019-05-22T07:16:23.255Z,18.00
2019-05-22T07:18:50.714Z,20.35
2019-05-22T07:21:33.149Z,19.67
2019-05-22T07:23:48.254Z,19.77
2019-05-22T07:26:14.945Z,20.32
2019-05-22T07:28:41.394Z,19.82
2019-05-22T07:31:08.563Z,18.60
2019-05-22T07:33:35.318Z,18.85
2019-05-22T07:36:13.618Z,18.02
2019-05-22T07:38:31.748Z,19.32
2019-05-22T07:40:58.490Z,17.35
2019-05-22T07:43:25.236Z,17.75
2019-05-22T07:45:53.400Z,18.67
2019-05-22T07:48:21.650Z,18.20
2019-05-22T07:50:49.366Z,17.67
2019-05-22T07:53:16.204Z,17.75
2019-05-22T07:55:42.955Z,16.32
2019-05-22T07:58:11.742Z,17.37
2019-05-22T08:00:40.629Z,17.15
2019-05-22T08:03:07.754Z,17.23
2019-05-22T08:05:36.616Z,17.80
2019-05-22T08:08:03.286Z,16.10
2019-05-22T08:10:29.867Z,16.17
2019-05-22T08:12:56.243Z,17.10
2019-05-22T08:15:24.860Z,15.23
2019-05-22T08:17:51.524Z,15.53
2019-05-22T08:20:17.967Z,15.38
2019-05-22T08:22:46.239Z,13.32
2019-05-22T08:25:15.021Z,14.35
2019-05-22T08:27:41.752Z,14.55
2019-05-22T08:30:08.815Z,14.87
2019-05-22T08:32:36.995Z,15.10
2019-05-22T08:35:05.856Z,15.60
2019-05-22T08:37:35.575Z,14.83
2019-05-22T08:40:03.477Z,14.83
2019-05-22T08:42:30.195Z,14.40
2019-05-22T08:44:56.744Z,14.67
2019-05-22T08:47:23.835Z,15.75
2019-05-22T08:49:50.387Z,15.60
2019-05-22T08:52:23.589Z,16.60
2019-05-22T08:54:46.041Z,17.60
2019-05-22T08:57:13.112Z,15.37
2019-05-22T08:59:39.864Z,14.53
2019-05-22T09:02:08.207Z,17.33
2019-05-22T09:04:34.575Z,16.83
2019-05-22T09:07:01.028Z,14.63
2019-05-22T09:09:27.507Z,14.50
2019-05-22T09:11:54.179Z,16.63
2019-05-22T09:14:20.646Z,16.33
2019-05-22T09:16:48.909Z,15.60
2019-05-22T09:19:15.598Z,16.27
2019-05-22T09:21:43.239Z,18.07
2019-05-22T09:24:13.463Z,18.83
2019-05-22T09:26:40.312Z,17.33
2019-05-22T09:29:06.794Z,17.67
2019-05-22T09:31:35.155Z,16.97
2019-05-22T09:34:01.723Z,19.75
2019-05-22T09:36:28.917Z,17.42
2019-05-22T09:38:55.507Z,18.03
2019-05-22T09:41:21.911Z,18.30
2019-05-22T09:43:48.260Z,17.70
2019-05-22T09:46:15.111Z,19.52
2019-05-22T09:48:42.219Z,18.10
2019-05-22T09:51:08.969Z,16.90
2019-05-22T09:53:35.596Z,16.73
2019-05-22T09:56:03.062Z,16.65
2019-05-22T09:58:29.879Z,17.17
2019-05-22T10:00:56.643Z,16.97
2019-05-22T10:03:23.311Z,18.17
2019-05-22T10:05:49.806Z,17.52
2019-05-22T10:08:16.648Z,19.03
2019-05-22T10:10:43.500Z,18.42
2019-05-22T10:13:10.159Z,18.17
2019-05-22T10:15:37.715Z,18.33
2019-05-22T10:18:05.284Z,17.42
2019-05-22T10:20:32.055Z,17.67
2019-05-22T10:23:14.127Z,17.27
2019-05-22T10:25:27.283Z,17.20
2019-05-22T10:27:53.645Z,18.32
2019-05-22T10:30:22.020Z,18.25
2019-05-22T10:32:48.572Z,17.35
2019-05-22T10:35:15.744Z,17.30
2019-05-22T10:37:42.393Z,15.32
2019-05-22T10:40:09.260Z,16.10
2019-05-22T10:42:36.126Z,14.85
2019-05-22T10:45:03.712Z,16.23
2019-05-22T10:47:30.143Z,15.15
2019-05-22T10:49:56.509Z,14.43
2019-05-22T10:52:23.364Z,14.87
2019-05-22T10:54:50.330Z,15.23
2019-05-22T10:57:17.485Z,11.97
2019-05-22T10:59:44.023Z,13.45
2019-05-22T11:02:10.704Z,13.28
2019-05-22T11:04:40.383Z,14.15
2019-05-22T11:07:07.145Z,12.43
2019-05-22T11:09:34.111Z,11.33
2019-05-22T11:12:01.475Z,11.73
2019-05-22T11:14:28.331Z,11.33
2019-05-22T11:16:55.310Z,10.63
2019-05-22T11:19:22.383Z,11.33
2019-05-22T11:21:48.845Z,11.40
2019-05-22T11:24:15.437Z,12.00
2019-05-22T11:26:41.788Z,10.75
2019-05-22T11:29:08.440Z,10.68
2019-05-22T11:31:35.716Z,9.75
2019-05-22T11:34:02.864Z,10.23
2019-05-22T11:36:30.534Z,8.95
2019-05-22T11:38:56.880Z,10.23
2019-05-22T11:41:24.014Z,9.55
2019-05-22T11:43:50.995Z,8.68
2019-05-22T11:46:17.880Z,8.93
2019-05-22T11:48:44.336Z,7.78
2019-05-22T11:51:11.412Z,9.23
2019-05-22T11:53:37.866Z,8.30
2019-05-22T11:56:04.335Z,8.23
2019-05-22T11:58:30.914Z,7.60
2019-05-22T12:00:57.380Z,6.60
2019-05-22T12:03:24.448Z,7.60
2019-05-22T12:05:52.035Z,8.63
2019-05-22T12:08:18.787Z,8.05
2019-05-22T12:10:45.296Z,7.58
2019-05-22T12:13:12.276Z,7.05
2019-05-22T12:15:39.941Z,6.78
2019-05-22T12:18:07.008Z,7.30
2019-05-22T12:20:33.987Z,7.62
2019-05-22T12:23:00.341Z,7.22
2019-05-22T12:25:28.092Z,7.20
2019-05-22T12:27:54.577Z,6.47
2019-05-22T12:30:21.335Z,7.30
2019-05-22T12:32:48.265Z,8.18
2019-05-22T12:35:16.555Z,6.87
2019-05-22T12:37:43.732Z,7.10
2019-05-22T12:40:12.487Z,6.60
2019-05-22T12:42:38.955Z,7.37
2019-05-22T12:45:05.914Z,8.33
2019-05-22T12:47:32.692Z,7.87
2019-05-22T12:49:59.052Z,7.60
2019-05-22T12:52:25.629Z,6.90
2019-05-22T12:54:53.059Z,6.03
2019-05-22T12:57:20.269Z,7.12
2019-05-22T12:59:47.036Z,6.60
2019-05-22T13:02:17.303Z,6.33
2019-05-22T13:04:43.958Z,5.80
2019-05-22T13:07:11.189Z,6.97
2019-05-22T13:09:38.052Z,7.40
2019-05-22T13:12:04.821Z,6.45
2019-05-22T13:14:31.263Z,6.22
2019-05-22T13:16:59.031Z,5.35
2019-05-22T13:19:25.896Z,6.47
2019-05-22T13:21:52.411Z,5.70
2019-05-22T13:24:19.648Z,6.72
2019-05-22T13:26:46.736Z,6.03
2019-05-22T13:29:13.433Z,6.42
2019-05-22T13:31:40.676Z,6.08
2019-05-22T13:34:07.673Z,5.37
2019-05-22T13:36:34.739Z,6.00
2019-05-22T13:39:02.030Z,6.20
2019-05-22T13:41:29.064Z,6.30
2019-05-22T13:43:56.252Z,5.40
2019-05-22T13:46:23.303Z,5.50
2019-05-22T13:48:50.008Z,5.70
2019-05-22T13:51:16.887Z,5.97
2019-05-22T13:53:43.839Z,5.80
2019-05-22T13:56:11.412Z,6.40
2019-05-22T13:58:38.393Z,6.28
2019-05-22T14:01:05.447Z,6.67
2019-05-22T14:03:32.240Z,6.17
2019-05-22T14:05:58.991Z,6.37
2019-05-22T14:08:27.416Z,5.30
2019-05-22T14:10:54.442Z,6.35
2019-05-22T14:13:22.628Z,6.10
2019-05-22T14:15:56.044Z,6.47
2019-05-22T14:18:17.567Z,6.12
2019-05-22T14:20:44.044Z,6.28
2019-05-22T14:23:10.517Z,6.65
2019-05-22T14:25:36.968Z,6.28
2019-05-22T14:28:04.053Z,6.10
2019-05-22T14:30:30.688Z,6.47
2019-05-22T14:32:57.849Z,6.15
2019-05-22T14:35:26.240Z,6.12
2019-05-22T14:37:53.247Z,6.17
2019-05-22T14:40:20.103Z,5.70
2019-05-22T14:42:46.573Z,5.12
2019-05-22T14:45:13.556Z,4.55
2019-05-22T14:47:40.199Z,9.75
2019-05-22T14:50:07.192Z,4.90
2019-05-22T14:52:34.044Z,4.40
2019-05-22T14:55:00.833Z,11.75
2019-05-22T14:57:27.525Z,4.87
2019-05-22T14:59:53.985Z,4.97
2019-05-22T15:02:21.594Z,5.55
2019-05-22T15:04:48.965Z,4.55
2019-05-22T15:07:15.403Z,4.90
2019-05-22T15:09:41.886Z,5.00
2019-05-22T15:12:08.331Z,4.62
2019-05-22T15:14:34.906Z,4.22
2019-05-22T15:17:01.460Z,4.22
2019-05-22T15:19:27.866Z,4.20
2019-05-22T15:21:54.233Z,5.35
2019-05-22T15:24:20.900Z,4.85
2019-05-22T15:26:47.355Z,5.47
2019-05-22T15:29:14.028Z,5.97
2019-05-22T15:31:40.409Z,5.90
2019-05-22T15:34:07.175Z,6.15
2019-05-22T15:36:34.145Z,6.15
2019-05-22T15:39:01.323Z,7.87
2019-05-22T15:41:28.220Z,5.90
2019-05-22T15:43:55.196Z,6.12
2019-05-22T15:46:22.785Z,5.58
2019-05-22T15:48:49.969Z,5.80
2019-05-22T15:51:18.676Z,5.42
2019-05-22T15:53:45.218Z,5.42
2019-05-22T15:56:11.696Z,5.95
2019-05-22T15:58:39.443Z,6.78
2019-05-22T16:01:07.539Z,6.37
2019-05-22T16:03:34.399Z,5.90
2019-05-22T16:06:01.393Z,5.58
2019-05-22T16:08:28.048Z,5.58
2019-05-22T16:11:00.002Z,5.37
2019-05-22T16:13:26.389Z,5.37
2019-05-22T16:15:53.980Z,4.80
2019-05-22T16:18:23.804Z,5.28
2019-05-22T16:20:51.391Z,5.30
2019-05-22T16:23:21.265Z,5.03
2019-05-22T16:25:47.764Z,4.47
2019-05-22T16:28:14.427Z,5.15
2019-05-22T16:30:42.015Z,5.05
2019-05-22T16:33:08.558Z,4.60
2019-05-22T16:35:35.238Z,4.70
2019-05-22T16:38:01.896Z,4.20
2019-05-22T16:40:29.160Z,3.95
2019-05-22T16:42:57.515Z,4.80
2019-05-22T16:45:24.471Z,5.40
2019-05-22T16:47:51.851Z,5.40
2019-05-22T16:50:18.591Z,4.70
2019-05-22T16:52:46.888Z,5.28
2019-05-22T16:55:16.421Z,4.85
2019-05-22T16:57:42.888Z,5.67
2019-05-22T17:00:11.148Z,5.58
2019-05-22T17:02:38.124Z,5.15
2019-05-22T17:05:06.808Z,5.33
2019-05-22T17:07:33.843Z,4.87
2019-05-22T17:10:00.850Z,5.45
2019-05-22T17:12:28.273Z,6.20
2019-05-22T17:14:55.211Z,5.42
2019-05-22T17:17:21.974Z,4.87
2019-05-22T17:19:48.831Z,5.50
2019-05-22T17:22:16.169Z,5.92
2019-05-22T17:24:44.101Z,5.85
2019-05-22T17:27:13.276Z,5.37
2019-05-22T17:29:40.236Z,6.40
2019-05-22T17:32:07.542Z,6.03
2019-05-22T17:34:37.508Z,5.42
2019-05-22T17:37:07.127Z,5.70
2019-05-22T17:39:33.987Z,5.80
2019-05-22T17:42:02.818Z,5.50
2019-05-22T17:44:30.307Z,5.62
2019-05-22T17:46:57.380Z,5.70
2019-05-22T17:49:23.940Z,6.05
2019-05-22T17:51:50.616Z,6.17
2019-05-22T17:54:17.681Z,6.30
2019-05-22T17:56:44.937Z,6.53
2019-05-22T17:59:11.525Z,6.10
2019-05-22T18:01:38.174Z,5.72
2019-05-22T18:04:04.659Z,6.28
2019-05-22T18:06:31.106Z,6.53
2019-05-22T18:08:57.673Z,7.03
2019-05-22T18:11:24.271Z,5.90
2019-05-22T18:13:52.647Z,6.35
2019-05-22T18:16:19.257Z,6.75
2019-05-22T18:18:45.807Z,6.50
2019-05-22T18:21:12.561Z,5.87
2019-05-22T18:23:38.938Z,6.15
2019-05-22T18:26:05.398Z,6.75
2019-05-22T18:28:31.860Z,6.22
2019-05-22T18:30:58.311Z,6.67
2019-05-22T18:33:24.889Z,6.62
2019-05-22T18:35:51.378Z,6.87
2019-05-22T18:38:17.856Z,6.60
2019-05-22T18:40:44.413Z,7.10
2019-05-22T18:43:11.266Z,6.85
2019-05-22T18:45:38.124Z,6.78
2019-05-22T18:48:05.028Z,6.50
2019-05-22T18:50:32.171Z,7.42
2019-05-22T18:52:58.664Z,7.35
2019-05-22T18:55:25.140Z,7.30
2019-05-22T18:57:51.603Z,7.22
2019-05-22T19:00:20.957Z,6.80
2019-05-22T19:02:47.621Z,7.15
2019-05-22T19:05:15.946Z,6.62
2019-05-22T19:07:42.671Z,6.50
2019-05-22T19:10:10.542Z,6.55
2019-05-22T19:12:37.187Z,7.13
2019-05-22T19:15:05.200Z,7.13
2019-05-22T19:17:32.356Z,8.03
2019-05-22T19:19:58.928Z,8.40
2019-05-22T19:22:25.786Z,8.73
2019-05-22T19:24:52.368Z,8.37
2019-05-22T19:27:18.818Z,7.67
2019-05-22T19:29:45.300Z,7.53
2019-05-22T19:32:11.887Z,7.70
2019-05-22T19:34:38.263Z,8.00
2019-05-22T19:37:04.631Z,7.53
2019-05-22T19:39:31.120Z,8.93
2019-05-22T19:42:03.515Z,8.20
2019-05-22T19:44:26.035Z,8.57
2019-05-22T19:46:52.519Z,8.33
2019-05-22T19:49:19.513Z,8.10
2019-05-22T19:51:47.159Z,9.13
2019-05-22T19:54:13.811Z,8.47
2019-05-22T19:56:40.777Z,8.23
2019-05-22T19:59:07.929Z,8.40
2019-05-22T20:01:34.797Z,8.33
2019-05-22T20:04:01.348Z,9.20
2019-05-22T20:06:28.419Z,8.20
2019-05-22T20:08:54.867Z,8.60
2019-05-22T20:11:21.232Z,9.20
2019-05-22T20:13:47.606Z,9.13
2019-05-22T20:16:16.361Z,8.77
2019-05-22T20:18:42.841Z,9.27
2019-05-22T20:21:09.324Z,8.80
2019-05-22T20:23:37.127Z,9.83
2019-05-22T20:26:04.280Z,9.60
2019-05-22T20:28:31.097Z,9.77
2019-05-22T20:30:57.809Z,10.30
2019-05-22T20:33:27.011Z,9.13
2019-05-22T20:35:52.907Z,9.97
2019-05-22T20:38:19.277Z,9.43
2019-05-22T20:40:46.145Z,10.00
2019-05-22T20:43:12.746Z,10.67
2019-05-22T20:45:40.233Z,10.57
2019-05-22T20:48:08.990Z,11.27
2019-05-22T20:50:36.656Z,9.80
2019-05-22T20:53:04.108Z,11.47
2019-05-22T20:55:30.556Z,12.03
2019-05-22T20:57:57.007Z,11.73
2019-05-22T21:00:25.586Z,12.63
2019-05-22T21:02:53.925Z,11.63
2019-05-22T21:05:22.275Z,12.33
2019-05-22T21:07:50.549Z,11.47
2019-05-22T21:10:18.977Z,12.50
2019-05-22T21:12:45.700Z,12.20
2019-05-22T21:15:12.161Z,11.90
2019-05-22T21:17:39.055Z,12.07
2019-05-22T21:20:07.703Z,12.83
2019-05-22T21:22:34.166Z,13.63
2019-05-22T21:25:00.652Z,13.17
2019-05-22T21:27:27.545Z,12.63
2019-05-22T21:29:54.598Z,12.00
2019-05-22T21:32:21.596Z,11.77
2019-05-22T21:34:48.551Z,11.73
2019-05-22T21:37:16.221Z,12.00
2019-05-22T21:39:43.486Z,10.57
2019-05-22T21:42:11.178Z,11.17
2019-05-22T21:44:37.931Z,12.07
2019-05-22T21:47:08.740Z,11.73
2019-05-22T21:49:38.813Z,11.10
2019-05-22T21:52:06.693Z,12.73
2019-05-22T21:54:33.336Z,12.93
2019-05-22T21:56:59.904Z,11.93
2019-05-22T21:59:26.351Z,11.73
2019-05-22T22:01:54.848Z,11.13
2019-05-22T22:04:23.596Z,10.27
2019-05-22T22:06:51.951Z,10.53
2019-05-22T22:09:20.239Z,10.47
2019-05-22T22:11:47.537Z,10.90
2019-05-22T22:14:14.322Z,9.63
2019-05-22T22:16:41.171Z,11.03
2019-05-22T22:19:09.540Z,10.00
2019-05-22T22:21:36.792Z,9.83
2019-05-22T22:24:05.290Z,9.20
2019-05-22T22:26:32.219Z,9.23
2019-05-22T22:28:58.708Z,9.07
2019-05-22T22:31:27.057Z,10.97
2019-05-22T22:33:55.344Z,9.90
2019-05-22T22:36:21.890Z,10.20
2019-05-22T22:38:48.858Z,11.50
2019-05-22T22:41:15.915Z,11.17
2019-05-22T22:43:44.304Z,11.57
2019-05-22T22:46:17.594Z,11.37
2019-05-22T22:48:44.473Z,11.17
2019-05-22T22:51:12.303Z,10.77
2019-05-22T22:53:41.015Z,11.10
2019-05-22T22:56:07.672Z,10.73
2019-05-22T22:58:34.865Z,12.33
2019-05-22T23:01:03.412Z,11.10
2019-05-22T23:03:30.803Z,11.60
2019-05-22T23:05:57.759Z,12.17
2019-05-22T23:08:26.942Z,12.80
2019-05-22T23:10:54.090Z,13.20
2019-05-22T23:13:21.055Z,13.50
2019-05-22T23:15:48.208Z,13.37
2019-05-22T23:18:20.625Z,12.90
2019-05-22T23:20:46.904Z,13.53
2019-05-22T23:23:14.468Z,12.60
2019-05-22T23:25:41.037Z,13.07
2019-05-22T23:28:07.788Z,13.27
2019-05-22T23:30:34.378Z,13.60
2019-05-22T23:33:01.816Z,13.33
2019-05-22T23:35:28.691Z,13.90
2019-05-22T23:37:55.977Z,13.13
2019-05-22T23:40:24.948Z,13.80
2019-05-22T23:42:51.727Z,13.63
2019-05-22T23:45:19.781Z,14.40
2019-05-22T23:47:48.128Z,14.40
2019-05-22T23:50:14.803Z,14.70
2019-05-22T23:52:41.352Z,14.37
2019-05-22T23:55:08.943Z,15.50
2019-05-22T23:57:36.235Z,15.53
